Terminal Aerodrome Forecast
Issued by NWS Cleveland, OH

Home | Current Version | Previous Version | Text Only | Print | Product List | Glossary On
Versions: 1 2 3 4 5 6 7 8 9 10 11 12 13 14 15
000
FTUS41 KCLE 282332
TAFTOL
TAF
KTOL 282332Z 2900/2924 21008KT P6SM VCSH BKN070 BKN120
     FM290300 21008KT P6SM BKN070 BKN120
      TEMPO 2909/2911 5SM BR
     FM291100 20010KT P6SM VCSH BKN035 BKN070
     FM291700 23010G18KT P6SM BKN050 BKN120 PROB30 2921/2924 5SM
      -TSRA BR BKN035CB=

USA.gov is the U.S. government's official web portal to all federal, state and local government web resources and services.